Latest Weather Observations for West Roebuck

IDW60801

Issued at 4:13 am WST Wednesday 24 October 2018 (issued every 10 minutes, with the page automatically refreshed every 10 minutes)

About weather observations | Map of weather stations | Latest weather observations for WA | Other Formats
Station Details ID: 003096 Name: WEST ROEBUCK Lat: -17.90 Lon: 122.31 Height: 32.0 m
Data from the previous 72 hours. | See also: Recent months at West Roebuck
Date/Time
WST
Temp
°C
App
Temp
°C
Dew
Point
°C
Rel
Hum
%
Delta-T
°C
Wind Press
QNH
hPa
Press
MSL
hPa
Rain since
9am
mm
Dir  Spd
km/h
Gust
km/h
Spd
kts
Gust
kts
24/04:00am 20.0 - - - - WSW 11 13 6 7 - - 0.0
24/03:30am 20.2 - - - - W 9 11 5 6 - - 0.0
24/03:00am 20.4 - - - - NW 9 11 5 6 - - 0.0
24/02:30am 20.0 - - - - NW 9 11 5 6 - - 0.0
24/02:00am 20.7 - - - - NW 9 9 5 5 - - 0.0
24/01:30am 20.6 - - - - NW 11 11 6 6 - - 0.0
24/01:00am 20.6 - - - - NW 9 13 5 7 - - 0.0
24/12:30am 21.1 - - - - NNW 9 9 5 5 - - 0.0
24/12:00am 21.6 - - - - NNW 9 11 5 6 - - 0.0
 
Date/Time
WST
Temp
°C
App
Temp
°C
Dew
Point
°C
Rel
Hum
%
Delta-T
°C
Wind Press
QNH
hPa
Press
MSL
hPa
Rain since
9am
mm
Dir  Spd
km/h
Gust
km/h
Spd
kts
Gust
kts
23/11:30pm 21.9 - - - - NW 7 13 4 7 - - 0.0
23/11:00pm 22.3 - - - - NW 9 11 5 6 - - 0.0
23/10:30pm 22.5 - - - - NW 9 13 5 7 - - 0.0
23/10:00pm 22.9 - - - - NW 11 13 6 7 - - 0.0
23/09:30pm 22.8 - - - - NW 11 13 6 7 - - 0.0
23/09:00pm 22.6 - - - - NW 9 13 5 7 - - 0.0
23/08:30pm 23.0 - - - - NW 9 11 5 6 - - 0.0
23/08:00pm 23.7 - - - - NW 9 11 5 6 - - 0.0
23/07:30pm 24.6 - - - - NW 9 11 5 6 - - 0.0
23/07:00pm 25.3 - - - - WNW 11 13 6 7 - - 0.0
23/06:30pm 25.9 - - - - WNW 9 17 5 9 - - 0.0
23/06:00pm 26.6 - - - - WNW 13 19 7 10 - - 0.0
23/05:30pm 27.7 - - - - WNW 11 19 6 10 - - 0.0
23/05:00pm 28.7 - - - - WNW 15 20 8 11 - - 0.0
23/04:30pm 30.1 - - - - WNW 13 20 7 11 - - 0.0
23/04:00pm 30.5 - - - - WNW 17 26 9 14 - - 0.0
23/03:30pm 32.1 - - - - WNW 17 24 9 13 - - 0.0
23/03:00pm 32.6 - - - - W 19 26 10 14 - - 0.0
23/02:30pm 33.5 - - - - W 17 24 9 13 - - 0.0
23/02:00pm 34.2 - - - - WNW 17 24 9 13 - - 0.0
23/01:30pm 33.9 - - - - WNW 15 24 8 13 - - 0.0
23/01:00pm 33.9 - - - - WNW 19 24 10 13 - - 0.0
23/12:30pm 33.9 - - - - W 17 26 9 14 - - 0.0
23/12:00pm 34.2 - - - - WNW 17 24 9 13 - - 0.0
23/11:30am 33.9 - - - - WNW 17 24 9 13 - - 0.0
23/11:00am 34.0 - - - - WNW 15 20 8 11 - - 0.0
23/10:30am 34.3 - - - - WSW 15 22 8 12 - - 0.0
23/10:00am 34.4 - - - - WSW 11 22 6 12 - - 0.0
23/09:30am 34.1 - - - - W 9 17 5 9 - - 0.0
23/09:00am 33.1 - - - - SW 11 20 6 11 - - 0.0
23/08:30am 32.2 - - - - SSW 13 24 7 13 - - 0.0
23/08:00am 30.9 - - - - SW 15 19 8 10 - - 0.0
23/07:30am 29.3 - - - - SW 11 19 6 10 - - 0.0
23/07:00am 27.9 - - - - WSW 9 13 5 7 - - 0.0
23/06:30am 25.3 - - - - CALM 0 6 0 3 - - 0.0
23/06:00am 23.5 - - - - SW 11 13 6 7 - - 0.0
23/05:30am 21.7 - - - - WSW 7 9 4 5 - - 0.0
23/05:00am 23.9 - - - - SW 9 11 5 6 - - 0.0
23/04:30am 23.4 - - - - WSW 9 13 5 7 - - 0.0
23/04:00am 22.8 - - - - WSW 9 11 5 6 - - 0.0
23/03:30am 22.2 - - - - W 7 9 4 5 - - 0.0
23/03:00am 22.6 - - - - W 7 9 4 5 - - 0.0
23/02:30am 22.5 - - - - W 7 7 4 4 - - 0.0
23/02:00am 22.5 - - - - WNW 6 7 3 4 - - 0.0
23/01:30am 21.9 - - - - WNW 7 9 4 5 - - 0.0
23/01:00am 21.9 - - - - W 9 9 5 5 - - 0.0
23/12:30am 22.3 - - - - WNW 6 7 3 4 - - 0.0
23/12:00am 22.2 - - - - NW 6 7 3 4 - - 0.0
 
Date/Time
WST
Temp
°C
App
Temp
°C
Dew
Point
°C
Rel
Hum
%
Delta-T
°C
Wind Press
QNH
hPa
Press
MSL
hPa
Rain since
9am
mm
Dir  Spd
km/h
Gust
km/h
Spd
kts
Gust
kts
22/11:30pm 22.2 - - - - NW 7 9 4 5 - - 0.0
22/11:00pm 22.5 - - - - WNW 4 9 2 5 - - 0.0
22/10:30pm 23.3 - - - - NW 7 9 4 5 - - 0.0
22/10:00pm 23.7 - - - - WNW 6 7 3 4 - - 0.0
22/09:30pm 23.2 - - - - NW 9 9 5 5 - - 0.0
22/09:00pm 23.0 - - - - NW 9 11 5 6 - - 0.0
22/08:30pm 23.3 - - - - NW 11 13 6 7 - - 0.0
22/08:00pm 23.5 - - - - NW 9 11 5 6 - - 0.0
22/07:30pm 24.4 - - - - WNW 9 13 5 7 - - 0.0
22/07:00pm 25.0 - - - - NW 7 11 4 6 - - 0.0
22/06:30pm 25.9 - - - - W 9 15 5 8 - - 0.0
22/06:00pm 26.5 - - - - WNW 13 17 7 9 - - 0.0
22/05:30pm 27.2 - - - - WNW 17 26 9 14 - - 0.0
22/05:00pm 27.9 - - - - WNW 19 26 10 14 - - 0.0
22/04:30pm 29.0 - - - - WNW 19 28 10 15 - - 0.0
22/04:00pm 29.4 - - - - WNW 17 28 9 15 - - 0.0
22/03:30pm 30.5 - - - - WNW 17 24 9 13 - - 0.0
22/03:00pm 31.4 - - - - WNW 19 24 10 13 - - 0.0
22/02:30pm 32.5 - - - - WNW 17 24 9 13 - - 0.0
22/02:00pm 33.7 - - - - WNW 15 26 8 14 - - 0.0
22/01:30pm 34.7 - - - - WNW 15 22 8 12 - - 0.0
22/01:00pm 34.2 - - - - WNW 15 22 8 12 - - 0.0
22/12:30pm 34.1 - - - - WNW 13 20 7 11 - - 0.0
22/12:00pm 33.9 - - - - WNW 15 24 8 13 - - 0.0
22/11:30am 33.3 - - - - W 13 19 7 10 - - 0.0
22/11:00am 33.0 - - - - WSW 13 22 7 12 - - 0.0
22/10:30am 32.4 - - - - WSW 11 19 6 10 - - 0.0
22/10:00am 32.0 - - - - WSW 13 22 7 12 - - 0.0
22/09:30am 32.1 - - - - WSW 13 24 7 13 - - 0.0
22/09:00am 31.3 - - - - WSW 17 24 9 13 - - 0.0
22/08:30am 30.3 - - - - WSW 17 24 9 13 - - 0.0
22/08:00am 29.7 - - - - WSW 17 24 9 13 - - 0.0
22/07:30am 28.5 - - - - W 11 19 6 10 - - 0.0
22/07:00am 25.6 - - - - NW 6 6 3 3 - - 0.0
22/06:30am 24.2 - - - - WNW 6 7 3 4 - - 0.0
22/06:00am 21.9 - - - - W 7 9 4 5 - - 0.0
22/05:30am 21.5 - - - - WSW 9 9 5 5 - - 0.0
22/05:00am 22.3 - - - - SW 7 9 4 5 - - 0.0
22/04:30am 22.1 - - - - WSW 9 11 5 6 - - 0.0
22/04:00am 21.0 - - - - W 11 13 6 7 - - 0.0
22/03:30am 20.2 - - - - NW 9 11 5 6 - - 0.0
22/03:00am 21.4 - - - - WSW 9 11 5 6 - - 0.0
22/02:30am 22.1 - - - - WSW 7 9 4 5 - - 0.0
22/02:00am 21.4 - - - - W 7 9 4 5 - - 0.0
22/01:30am 21.9 - - - - W 7 9 4 5 - - 0.0
22/01:00am 21.6 - - - - WSW 11 13 6 7 - - 0.0
22/12:30am 20.9 - - - - WNW 7 9 4 5 - - 0.0
22/12:00am 22.1 - - - - WSW 9 9 5 5 - - 0.0
 
Date/Time
WST
Temp
°C
App
Temp
°C
Dew
Point
°C
Rel
Hum
%
Delta-T
°C
Wind Press
QNH
hPa
Press
MSL
hPa
Rain since
9am
mm
Dir  Spd
km/h
Gust
km/h
Spd
kts
Gust
kts
21/11:30pm 22.0 - - - - W 9 9 5 5 - - 0.0
21/11:00pm 23.0 - - - - WSW 9 11 5 6 - - 0.0
21/10:30pm 23.0 - - - - SW 9 11 5 6 - - 0.0
21/10:00pm 23.0 - - - - WSW 9 11 5 6 - - 0.0
21/09:30pm 23.3 - - - - WSW 9 11 5 6 - - 0.0
21/09:00pm 23.3 - - - - WSW 7 9 4 5 - - 0.0
21/08:30pm 23.1 - - - - W 9 11 5 6 - - 0.0
21/08:00pm 24.1 - - - - W 7 9 4 5 - - 0.0
21/07:30pm 25.1 - - - - WSW 9 13 5 7 - - 0.0
21/07:00pm 25.4 - - - - WSW 9 13 5 7 - - 0.0
21/06:30pm 25.9 - - - - W 9 13 5 7 - - 0.0
21/06:00pm 26.8 - - - - WSW 9 15 5 8 - - 0.0
21/05:30pm 27.7 - - - - WSW 13 20 7 11 - - 0.0
21/05:00pm 29.0 - - - - WSW 11 17 6 9 - - 0.0
21/04:30pm 29.5 - - - - WSW 17 24 9 13 - - 0.0
21/04:00pm 30.3 - - - - SW 15 22 8 12 - - 0.0
21/03:30pm 31.2 - - - - WSW 17 22 9 12 - - 0.0
21/03:00pm 31.4 - - - - WSW 19 26 10 14 - - 0.0
21/02:30pm 31.9 - - - - WSW 19 26 10 14 - - 0.0
21/02:00pm 32.1 - - - - WSW 17 26 9 14 - - 0.0
21/01:30pm 32.2 - - - - WSW 17 24 9 13 - - 0.0
21/01:00pm 34.2 - - - - WSW 17 24 9 13 - - 0.0
21/12:30pm 34.8 - - - - SW 13 20 7 11 - - 0.0
21/12:00pm 33.7 - - - - SW 15 20 8 11 - - 0.0
21/11:30am 34.1 - - - - SW 15 24 8 13 - - 0.0
21/11:00am 33.6 - - - - SSW 9 17 5 9 - - 0.0
21/10:30am 32.6 - - - - SSW 13 22 7 12 - - 0.0
21/10:00am 30.5 - - - - SW 17 24 9 13 - - 0.0
21/09:30am 31.9 - - - - SSW 17 28 9 15 - - 0.0
21/09:00am 30.3 - - - - SW 13 20 7 11 - - 0.0
21/08:30am 28.6 - - - - SW 13 20 7 11 - - 0.0
21/08:00am 28.3 - - - - SSW 15 24 8 13 - - 0.0
21/07:30am 26.4 - - - - S 11 17 6 9 - - 0.0
21/07:00am 25.0 - - - - S 6 11 3 6 - - 0.0
21/06:30am 23.2 - - - - WNW 2 7 1 4 - - 0.0
21/06:00am 22.0 - - - - CALM 0 0 0 0 - - 0.0
21/05:30am 22.0 - - - - SSE 7 9 4 5 - - 0.0
21/05:00am 21.9 - - - - CALM 0 0 0 0 - - 0.0
21/04:30am 22.6 - - - - S 7 9 4 5 - - 0.0

Other Formats:

Comma delimited format used in spreadsheet applications
http://www.bom.gov.au/fwo/IDW60801/IDW60801.95204.axf

JavaScript Object Notation format (JSON) in row-major order
http://www.bom.gov.au/fwo/IDW60801/IDW60801.95204.json